Boca Raton, FL (33433)

10:20 AM EST on January 27, 2015 (GMT -0500)
Terra Tranquila | Change Station
CLOSE
Current Station
Personal Weather Station
Location: Boca Raton, FL
Elevation: 30 ft
Nearby Weather Stations

Elev 30 ft 26.34 °N, 80.15 °W | Updated 25 seconds ago

Clear
Clear
60.4 °F
Feels Like 60.4 °F
N
2.2
Wind Variable Wind from NNE
Gusts 4.7 mph

Today
High -- | Low -- °F
--% Chance of Precip.
Yesterday
High -- | Low -- °F
Precip. -- in
7:07 AM 5:59 PM
First Quarter, 55% visible
Pressure 30.07 in
Visibility 10.0 miles
Clouds Clear
Dew Point 40 °F
Humidity 46%
Rainfall 0.00 in
Snow Depth Not available.
UV 4 out of 12
Pollen 8.50 out of 12
Air Quality Not available.
Flu Activity Not available.
METAR KPMP 271453Z 31013KT 10SM CLR 16/02 A3006 RMK AO2 SLP181 T01610022 51016

More Conditions Fewer Conditions

Pressure 30.07 in
Visibility 10.0 miles
Clouds Clear
Dew Point 40 °F
Humidity 46%
Rainfall 0.00 in
Snow Depth Not available.
UV 4 out of 12
Pollen 8.50 out of 12
Air Quality Not available.
Flu Activity Not available.
METAR KPMP 271453Z 31013KT 10SM CLR 16/02 A3006 RMK AO2 SLP181 T01610022 51016

More Conditions Fewer Conditions

10-Day Weather Forecast

Almanac

Astronomy

Jan. 27, 2015 Rise Set
Actual Time
Civil Twilight
Nautical Twilight
Astronomical Twilight
Moon
Length of Visible Light
Length of Day
Tomorrow will be .
, % of the Moon is Illuminated

Today's Extremes

State Highs State Lows

Community

WunderPhotos

Upload Photos

1,790,686 photos uploaded!

WunderBlogs® & News

Nearby

Air Quality

  Air Quality AQ Index Pollutant
Not available.

Snow Depth

Station Depth Elevation

Earthquake Activity

City Distance Mag. Time & Date
Minimum magnitude displayed is 2.5.

Coastal Water Temperatures

Place Temperature

Nearby Weather Stations